createdAt,value
2018-02-21T00:00:36.488Z,0.0
2018-02-21T00:01:38.140Z,-0.0
2018-02-21T00:02:39.796Z,0.0
2018-02-21T00:03:41.451Z,0.2
2018-02-21T00:04:43.095Z,0.1
2018-02-21T00:05:44.740Z,0.0
2018-02-21T00:06:46.414Z,0.0
2018-02-21T00:07:48.059Z,0.0
2018-02-21T00:08:49.714Z,0.0
2018-02-21T00:09:51.360Z,0.2
2018-02-21T00:10:53.012Z,-0.0
2018-02-21T00:11:54.657Z,0.1
2018-02-21T00:12:56.301Z,0.0
2018-02-21T00:13:57.991Z,0.1
2018-02-21T00:14:59.632Z,0.1
2018-02-21T00:16:01.284Z,0.0
2018-02-21T00:17:02.917Z,0.0
2018-02-21T00:18:04.565Z,0.2
2018-02-21T00:19:06.217Z,0.1
2018-02-21T00:20:07.861Z,0.1
2018-02-21T00:21:09.509Z,0.1
2018-02-21T00:22:11.160Z,0.1
2018-02-21T00:23:12.809Z,0.2
2018-02-21T00:24:14.472Z,0.0
2018-02-21T00:25:16.108Z,0.1
2018-02-21T00:26:17.755Z,0.2
2018-02-21T00:27:19.408Z,0.2
2018-02-21T00:28:21.060Z,0.1
2018-02-21T00:29:22.700Z,0.2
2018-02-21T00:30:24.340Z,0.2
2018-02-21T00:31:25.990Z,0.2
2018-02-21T00:32:27.637Z,0.2
2018-02-21T00:33:29.277Z,0.3
2018-02-21T00:34:30.927Z,0.2
2018-02-21T00:35:32.586Z,0.2
2018-02-21T00:36:34.237Z,0.2
2018-02-21T00:37:35.882Z,0.2
2018-02-21T00:38:37.533Z,0.2
2018-02-21T00:39:39.182Z,0.2
2018-02-21T00:40:40.830Z,0.2
2018-02-21T00:41:42.474Z,0.2
2018-02-21T00:42:44.112Z,0.2
2018-02-21T00:43:45.779Z,0.1
2018-02-21T00:44:47.423Z,0.2
2018-02-21T00:45:49.069Z,0.1
2018-02-21T00:46:50.708Z,0.2
2018-02-21T00:47:52.353Z,0.2
2018-02-21T00:48:54.006Z,0.1
2018-02-21T00:49:55.656Z,0.2
2018-02-21T00:50:57.307Z,0.2
2018-02-21T00:51:58.987Z,0.0
2018-02-21T00:53:00.615Z,0.1
2018-02-21T00:54:02.257Z,0.2
2018-02-21T00:55:03.901Z,0.1
2018-02-21T00:56:05.541Z,0.1
2018-02-21T00:57:07.194Z,0.1
2018-02-21T00:58:08.845Z,0.1
2018-02-21T00:59:10.505Z,0.1
2018-02-21T01:00:12.146Z,-0.0
2018-02-21T01:01:13.793Z,0.0
2018-02-21T01:02:15.436Z,0.0
2018-02-21T01:03:17.076Z,0.0
2018-02-21T01:04:18.733Z,-0.1
2018-02-21T01:05:20.388Z,0.0
2018-02-21T01:06:22.034Z,0.0
2018-02-21T01:07:23.766Z,0.0
2018-02-21T01:08:25.417Z,0.1
2018-02-21T01:09:27.119Z,-0.1
2018-02-21T01:10:28.772Z,-0.1
2018-02-21T01:11:30.418Z,0.0
2018-02-21T01:12:32.066Z,-0.1
2018-02-21T01:13:33.721Z,-0.1
2018-02-21T01:14:35.365Z,-0.1
2018-02-21T01:15:37.016Z,-0.1
2018-02-21T01:16:38.668Z,-0.0
2018-02-21T01:17:40.316Z,-0.1
2018-02-21T01:18:41.972Z,-0.0
2018-02-21T01:19:43.655Z,-0.1
2018-02-21T01:20:45.309Z,-0.1
2018-02-21T01:21:46.959Z,-0.1
2018-02-21T01:22:48.619Z,-0.1
2018-02-21T01:23:50.322Z,-0.1
2018-02-21T01:24:51.988Z,-0.1
2018-02-21T01:25:53.649Z,-0.1
2018-02-21T01:26:55.308Z,-0.2
2018-02-21T01:27:56.975Z,-0.3
2018-02-21T01:28:58.629Z,-0.2
2018-02-21T01:30:00.284Z,-0.1
2018-02-21T01:31:01.944Z,-0.2
2018-02-21T01:32:03.604Z,-0.1
2018-02-21T01:33:05.251Z,-0.1
2018-02-21T01:34:06.905Z,-0.1
2018-02-21T01:35:08.553Z,-0.1
2018-02-21T01:36:10.200Z,-0.2
2018-02-21T01:37:11.850Z,-0.2
2018-02-21T01:38:13.507Z,-0.1
2018-02-21T01:39:15.158Z,-0.2
2018-02-21T01:40:16.805Z,-0.1
2018-02-21T01:41:18.459Z,-0.1
2018-02-21T01:42:20.113Z,-0.0
2018-02-21T01:43:21.774Z,-0.0
2018-02-21T01:44:23.424Z,0.1
2018-02-21T01:45:25.087Z,-0.1
2018-02-21T01:46:26.734Z,0.0
2018-02-21T01:47:28.390Z,-0.0
2018-02-21T01:48:30.044Z,-0.0
2018-02-21T01:49:31.685Z,-0.0
2018-02-21T01:50:33.341Z,-0.0
2018-02-21T01:51:34.988Z,-0.0
2018-02-21T01:52:36.641Z,-0.0
2018-02-21T01:53:38.293Z,-0.1
2018-02-21T01:54:39.939Z,-0.1
2018-02-21T01:55:41.590Z,-0.0
2018-02-21T01:56:43.248Z,-0.1
2018-02-21T01:57:44.894Z,0.0
2018-02-21T01:58:46.546Z,-0.1
2018-02-21T01:59:48.196Z,-0.0
2018-02-21T02:00:49.849Z,-0.1
2018-02-21T02:01:51.502Z,-0.2
2018-02-21T02:02:53.153Z,-0.1
2018-02-21T02:03:54.812Z,-0.0
2018-02-21T02:04:56.471Z,-0.1
2018-02-21T02:05:58.118Z,-0.1
2018-02-21T02:06:59.800Z,-0.1
2018-02-21T02:08:01.447Z,-0.1
2018-02-21T02:09:03.099Z,-0.2
2018-02-21T02:10:04.748Z,-0.3
2018-02-21T02:11:06.389Z,-0.2
2018-02-21T02:12:08.051Z,-0.1
2018-02-21T02:13:09.700Z,-0.2
2018-02-21T02:14:11.360Z,-0.2
2018-02-21T02:15:13.013Z,-0.2
2018-02-21T02:16:14.664Z,-0.2
2018-02-21T02:17:16.315Z,-0.2
2018-02-21T02:18:17.958Z,-0.1
2018-02-21T02:19:19.606Z,-0.1
2018-02-21T02:20:21.255Z,-0.1
2018-02-21T02:21:22.898Z,-0.1
2018-02-21T02:22:24.546Z,-0.1
2018-02-21T02:23:26.199Z,-0.1
2018-02-21T02:24:27.904Z,-0.1
2018-02-21T02:25:29.552Z,0.0
2018-02-21T02:26:31.207Z,-0.0
2018-02-21T02:27:32.854Z,0.0
2018-02-21T02:28:34.517Z,0.0
2018-02-21T02:29:36.169Z,-0.1
2018-02-21T02:30:37.823Z,0.0
2018-02-21T02:31:39.478Z,0.1
2018-02-21T02:32:41.117Z,0.1
2018-02-21T02:33:42.771Z,0.0
2018-02-21T02:34:44.415Z,0.0
2018-02-21T02:35:46.054Z,0.0
2018-02-21T02:36:47.703Z,0.0
2018-02-21T02:37:49.362Z,0.0
2018-02-21T02:38:51.009Z,0.0
2018-02-21T02:39:52.646Z,0.1
2018-02-21T02:40:54.279Z,0.1
2018-02-21T02:41:55.931Z,0.0
2018-02-21T02:42:57.572Z,0.0
2018-02-21T02:43:59.223Z,-0.0
2018-02-21T02:45:00.884Z,0.0
2018-02-21T02:46:02.522Z,0.0
2018-02-21T02:47:04.179Z,0.0
2018-02-21T02:48:05.830Z,0.1
2018-02-21T02:49:07.463Z,0.1
2018-02-21T02:50:09.116Z,0.0
2018-02-21T02:51:10.760Z,0.2
2018-02-21T02:52:12.399Z,0.0
2018-02-21T02:53:14.055Z,0.0
2018-02-21T02:54:15.701Z,0.0
2018-02-21T02:55:17.347Z,0.0
2018-02-21T03:01:06.288Z,-0.1
2018-02-21T03:02:07.925Z,-0.2
2018-02-21T03:03:59.860Z,-0.2
2018-02-21T03:05:01.513Z,-0.2
2018-02-21T03:06:53.424Z,-0.2
2018-02-21T03:07:55.076Z,-0.2
2018-02-21T03:09:47.014Z,-0.1
2018-02-21T03:10:48.666Z,-0.1
2018-02-21T03:12:40.567Z,-0.2
2018-02-21T03:13:42.218Z,-0.2
2018-02-21T03:15:34.133Z,-0.3
2018-02-21T03:16:35.788Z,-0.3
2018-02-21T03:18:27.710Z,-0.4
2018-02-21T03:19:29.353Z,-0.3
2018-02-21T03:21:21.384Z,-0.4
2018-02-21T03:22:23.038Z,-0.5
2018-02-21T03:24:14.958Z,-0.7
2018-02-21T03:25:16.605Z,-0.8
2018-02-21T03:27:08.516Z,-1.0
2018-02-21T03:28:10.167Z,-1.0
2018-02-21T03:29:11.819Z,-1.1
2018-02-21T03:30:13.471Z,-1.2
2018-02-21T03:31:15.121Z,-1.2
2018-02-21T03:32:16.773Z,-1.2
2018-02-21T03:33:18.428Z,-1.3
2018-02-21T03:34:20.065Z,-1.3
2018-02-21T03:35:21.716Z,-1.4
2018-02-21T03:36:23.368Z,-1.5
2018-02-21T03:37:25.022Z,-1.4
2018-02-21T03:38:26.670Z,-1.5
2018-02-21T03:39:28.315Z,-1.3
2018-02-21T03:40:29.967Z,-1.2
2018-02-21T03:41:31.626Z,-1.3
2018-02-21T03:42:33.283Z,-1.5
2018-02-21T03:43:34.934Z,-1.4
2018-02-21T03:44:36.579Z,-1.7
2018-02-21T03:45:38.228Z,-1.7
2018-02-21T03:46:39.876Z,-1.8
2018-02-21T03:47:41.529Z,-1.9
2018-02-21T03:48:43.176Z,-2.0
2018-02-21T03:49:44.823Z,-1.9
2018-02-21T03:50:46.474Z,-1.9
2018-02-21T03:51:48.113Z,-1.9
2018-02-21T03:52:49.763Z,-2.0
2018-02-21T03:53:51.415Z,-2.0
2018-02-21T03:54:53.054Z,-1.9
2018-02-21T03:55:54.718Z,-2.2
2018-02-21T03:56:56.359Z,-2.2
2018-02-21T03:57:58.009Z,-2.1
2018-02-21T03:58:59.657Z,-2.0
2018-02-21T04:00:01.300Z,-2.0
2018-02-21T04:01:02.963Z,-2.1
2018-02-21T04:02:04.606Z,-1.9
2018-02-21T04:03:06.263Z,-2.0
2018-02-21T04:04:07.914Z,-2.4
2018-02-21T04:05:09.556Z,-2.6
2018-02-21T04:06:11.209Z,-2.2
2018-02-21T04:07:12.859Z,-2.3
2018-02-21T04:08:14.507Z,-2.6
2018-02-21T04:09:16.196Z,-2.8
2018-02-21T04:10:17.847Z,-2.9
2018-02-21T04:11:19.500Z,-3.2
2018-02-21T04:12:21.136Z,-3.0
2018-02-21T04:13:22.795Z,-3.0
2018-02-21T04:14:24.435Z,-3.1
2018-02-21T04:15:26.090Z,-3.2
2018-02-21T04:16:27.747Z,-3.1
2018-02-21T04:17:29.398Z,-2.9
2018-02-21T04:18:31.048Z,-3.2
2018-02-21T04:19:32.700Z,-3.1
2018-02-21T04:20:34.343Z,-3.2
2018-02-21T04:21:36.002Z,-3.6
2018-02-21T04:22:37.647Z,-3.7
2018-02-21T04:23:39.299Z,-3.7
2018-02-21T04:24:40.946Z,-3.9
2018-02-21T04:25:42.599Z,-3.9
2018-02-21T04:26:44.241Z,-4.0
2018-02-21T04:27:45.888Z,-4.0
2018-02-21T04:28:47.540Z,-3.9
2018-02-21T04:29:49.197Z,-4.1
2018-02-21T04:30:50.838Z,-3.9
2018-02-21T04:31:52.488Z,-3.9
2018-02-21T04:32:54.134Z,-3.7
2018-02-21T04:33:55.780Z,-3.7
2018-02-21T04:34:57.428Z,-3.7
2018-02-21T04:35:59.068Z,-3.6
2018-02-21T04:37:00.716Z,-3.7
2018-02-21T04:38:02.354Z,-3.8
2018-02-21T04:39:04.008Z,-3.9
2018-02-21T04:40:05.660Z,-3.9
2018-02-21T04:41:07.307Z,-4.0
2018-02-21T04:42:08.958Z,-3.8
2018-02-21T04:43:10.606Z,-3.9
2018-02-21T04:44:12.261Z,-4.1
2018-02-21T04:45:13.930Z,-3.9
2018-02-21T04:46:15.576Z,-3.7
2018-02-21T04:47:17.222Z,-3.8
2018-02-21T04:48:18.877Z,-3.6
2018-02-21T04:49:20.563Z,-3.4
2018-02-21T04:50:22.167Z,-3.3
2018-02-21T04:51:23.822Z,-3.3
2018-02-21T04:52:25.560Z,-3.3
2018-02-21T04:53:27.214Z,-3.5
2018-02-21T04:54:28.854Z,-3.7
2018-02-21T04:55:30.498Z,-3.8
2018-02-21T04:56:32.143Z,-3.9
2018-02-21T04:57:33.798Z,-3.9
2018-02-21T04:58:35.454Z,-4.0
2018-02-21T04:59:37.102Z,-4.1
2018-02-21T05:00:38.792Z,-4.1
2018-02-21T05:01:40.402Z,-3.9
2018-02-21T05:02:42.046Z,-4.2
2018-02-21T05:03:43.682Z,-4.3
2018-02-21T05:04:45.339Z,-4.6
2018-02-21T05:05:46.982Z,-4.4
2018-02-21T05:06:48.619Z,-4.6
2018-02-21T05:07:50.276Z,-4.8
2018-02-21T05:08:51.929Z,-4.5
2018-02-21T05:09:53.563Z,-4.6
2018-02-21T05:10:55.215Z,-4.7
2018-02-21T05:11:56.870Z,-5.0
2018-02-21T05:12:58.511Z,-5.0
2018-02-21T05:14:00.169Z,-5.1
2018-02-21T05:15:01.839Z,-4.9
2018-02-21T05:16:03.503Z,-4.8
2018-02-21T05:17:05.151Z,-5.0
2018-02-21T05:18:06.803Z,-5.1
2018-02-21T05:19:08.469Z,-5.1
2018-02-21T05:20:10.132Z,-5.1
2018-02-21T05:21:11.797Z,-5.0
2018-02-21T05:22:13.439Z,-5.0
2018-02-21T05:23:15.088Z,-5.0
2018-02-21T05:24:16.735Z,-5.0
2018-02-21T05:25:18.384Z,-4.8
2018-02-21T05:26:20.051Z,-5.1
2018-02-21T05:27:21.702Z,-4.8
2018-02-21T05:28:23.354Z,-4.9
2018-02-21T05:29:25.001Z,-4.8
2018-02-21T05:30:26.648Z,-4.8
2018-02-21T05:31:28.292Z,-4.9
2018-02-21T05:32:29.935Z,-4.9
2018-02-21T05:33:31.585Z,-5.0
2018-02-21T05:34:33.238Z,-5.1
2018-02-21T05:35:34.890Z,-5.3
2018-02-21T05:36:36.565Z,-5.3
2018-02-21T05:37:38.193Z,-5.1
2018-02-21T05:38:39.847Z,-5.3
2018-02-21T05:39:41.489Z,-5.3
2018-02-21T05:40:43.138Z,-5.2
2018-02-21T05:41:44.787Z,-5.2
2018-02-21T05:42:46.445Z,-5.2
2018-02-21T05:43:48.137Z,-5.0
2018-02-21T05:44:49.781Z,-5.0
2018-02-21T05:45:51.429Z,-5.2
2018-02-21T05:46:53.066Z,-5.3
2018-02-21T05:47:54.717Z,-5.4
2018-02-21T05:48:56.367Z,-5.5
2018-02-21T05:49:58.030Z,-5.6
2018-02-21T05:50:59.676Z,-5.5
2018-02-21T05:52:01.325Z,-5.6
2018-02-21T05:53:02.978Z,-5.5
2018-02-21T05:54:04.615Z,-5.4
2018-02-21T05:55:06.318Z,-5.4
2018-02-21T05:56:07.976Z,-5.5
2018-02-21T05:57:09.626Z,-5.4
2018-02-21T05:58:11.277Z,-5.2
2018-02-21T05:59:12.940Z,-5.3
2018-02-21T06:00:14.576Z,-5.4
2018-02-21T06:01:16.230Z,-5.1
2018-02-21T06:02:17.877Z,-5.1
2018-02-21T06:03:19.523Z,-5.3
2018-02-21T06:04:21.169Z,-5.6
2018-02-21T06:05:22.828Z,-5.5
2018-02-21T06:06:24.468Z,-5.6
2018-02-21T06:07:26.123Z,-5.7
2018-02-21T06:08:27.778Z,-5.6
2018-02-21T06:09:29.429Z,-5.6
2018-02-21T06:10:31.075Z,-5.6
2018-02-21T06:11:32.768Z,-5.4
2018-02-21T06:12:34.426Z,-5.4
2018-02-21T06:13:36.072Z,-5.4
2018-02-21T06:14:37.718Z,-5.5
2018-02-21T06:15:39.404Z,-5.6
2018-02-21T06:16:41.049Z,-5.6
2018-02-21T06:17:42.696Z,-5.5
2018-02-21T06:18:44.349Z,-5.4
2018-02-21T06:19:46.002Z,-5.6
2018-02-21T06:20:47.660Z,-5.8
2018-02-21T06:21:49.308Z,-5.8
2018-02-21T06:22:50.962Z,-5.6
2018-02-21T06:23:52.671Z,-5.2
2018-02-21T06:24:54.321Z,-5.3
2018-02-21T06:25:55.967Z,-5.6
2018-02-21T06:26:57.622Z,-5.7
2018-02-21T06:27:59.279Z,-5.8
2018-02-21T06:29:01.027Z,-5.6
2018-02-21T06:30:02.680Z,-5.8
2018-02-21T06:31:04.331Z,-5.8
2018-02-21T06:32:05.983Z,-5.8
2018-02-21T06:33:07.630Z,-5.8
2018-02-21T06:34:09.282Z,-5.8
2018-02-21T06:35:10.993Z,-5.7
2018-02-21T06:36:14.643Z,-5.7
2018-02-21T06:37:16.311Z,-5.7
2018-02-21T06:38:17.959Z,-5.7
2018-02-21T06:39:19.646Z,-5.7
2018-02-21T06:40:21.295Z,-5.7
2018-02-21T06:41:22.950Z,-5.8
2018-02-21T06:42:24.597Z,-5.8
2018-02-21T06:43:26.280Z,-5.7
2018-02-21T06:44:27.919Z,-5.6
2018-02-21T06:45:29.571Z,-5.7
2018-02-21T06:46:31.222Z,-5.7
2018-02-21T06:47:32.890Z,-5.6
2018-02-21T06:48:34.552Z,-5.6
2018-02-21T06:49:36.194Z,-5.5
2018-02-21T06:50:37.841Z,-5.5
2018-02-21T06:51:39.484Z,-5.5
2018-02-21T06:52:41.139Z,-5.3
2018-02-21T06:53:42.799Z,-5.3
2018-02-21T06:54:44.454Z,-5.1
2018-02-21T06:55:46.105Z,-5.4
2018-02-21T07:01:56.493Z,-5.6
2018-02-21T07:02:58.139Z,-5.6
2018-02-21T07:03:59.784Z,-5.4
2018-02-21T07:05:01.429Z,-5.3
2018-02-21T07:06:03.079Z,-5.2
2018-02-21T07:07:04.744Z,-4.8
2018-02-21T07:08:06.396Z,-4.6
2018-02-21T07:09:08.049Z,-4.3
2018-02-21T07:10:09.711Z,-4.0
2018-02-21T07:11:11.341Z,-3.9
2018-02-21T07:12:12.983Z,-3.9
2018-02-21T07:13:14.646Z,-3.9
2018-02-21T07:14:16.305Z,-3.8
2018-02-21T07:15:17.973Z,-3.9
2018-02-21T07:16:19.690Z,-3.7
2018-02-21T07:17:21.350Z,-3.7
2018-02-21T07:18:22.994Z,-3.7
2018-02-21T07:19:24.652Z,-3.3
2018-02-21T07:20:26.318Z,-3.2
2018-02-21T07:21:27.971Z,-3.0
2018-02-21T07:22:29.625Z,-2.8
2018-02-21T07:23:31.288Z,-2.7
2018-02-21T07:24:32.938Z,-2.8
2018-02-21T07:25:34.580Z,-2.7
2018-02-21T07:26:36.233Z,-2.3
2018-02-21T07:27:37.884Z,-2.4
2018-02-21T07:28:39.533Z,-2.2
2018-02-21T07:29:41.189Z,-2.2
2018-02-21T07:30:42.870Z,-2.1
2018-02-21T07:31:44.524Z,-2.2
2018-02-21T07:32:46.178Z,-2.0
2018-02-21T07:33:47.834Z,-1.9
2018-02-21T07:34:49.490Z,-1.8
2018-02-21T07:35:51.137Z,-1.7
2018-02-21T07:36:52.809Z,-1.5
2018-02-21T07:37:54.458Z,-1.5
2018-02-21T07:38:56.112Z,-1.4
2018-02-21T07:39:57.759Z,-1.4
2018-02-21T07:40:59.422Z,-1.5
2018-02-21T07:42:01.142Z,-1.2
2018-02-21T07:43:02.796Z,-1.2
2018-02-21T07:44:04.448Z,-1.1
2018-02-21T07:45:06.111Z,-1.1
2018-02-21T07:46:07.765Z,-1.3
2018-02-21T07:47:09.423Z,-1.3
2018-02-21T07:48:11.082Z,-1.0
2018-02-21T07:49:12.740Z,-0.7
2018-02-21T07:50:14.388Z,-0.4
2018-02-21T07:51:16.109Z,-0.2
2018-02-21T07:52:17.784Z,-0.5
2018-02-21T07:53:19.437Z,-0.4
2018-02-21T07:54:21.104Z,-0.3
2018-02-21T07:55:22.798Z,-0.3
2018-02-21T07:56:24.464Z,-0.1
2018-02-21T07:57:26.123Z,0.3
2018-02-21T07:58:27.776Z,0.3
2018-02-21T07:59:29.443Z,0.2
2018-02-21T08:00:31.106Z,0.1
2018-02-21T08:01:32.760Z,-0.5
2018-02-21T08:02:34.418Z,-0.5
2018-02-21T08:03:36.076Z,-0.0
2018-02-21T08:04:37.963Z,-0.3
2018-02-21T08:05:39.627Z,-0.1
2018-02-21T08:06:41.290Z,-0.3
2018-02-21T08:07:42.945Z,-0.3
2018-02-21T08:08:44.617Z,-0.0
2018-02-21T08:09:46.337Z,-0.0
2018-02-21T08:10:48.212Z,1.0
2018-02-21T08:11:49.910Z,1.6
2018-02-21T08:12:51.559Z,1.3
2018-02-21T08:13:53.213Z,1.2
2018-02-21T08:14:54.866Z,1.9
2018-02-21T08:15:56.532Z,2.3
2018-02-21T08:16:58.235Z,1.6
2018-02-21T08:17:59.920Z,1.6
2018-02-21T08:19:01.571Z,1.6
2018-02-21T08:20:03.234Z,1.2
2018-02-21T08:21:04.902Z,1.4
2018-02-21T08:22:06.550Z,1.4
2018-02-21T08:23:08.221Z,1.3
2018-02-21T08:24:09.871Z,1.8
2018-02-21T08:25:11.530Z,2.5
2018-02-21T08:26:13.206Z,1.7
2018-02-21T08:27:14.863Z,1.3
2018-02-21T08:28:16.582Z,1.0
2018-02-21T08:29:18.185Z,1.3
2018-02-21T08:30:19.843Z,2.5
2018-02-21T08:31:21.501Z,3.5
2018-02-21T08:32:23.161Z,2.7
2018-02-21T08:33:24.825Z,2.4
2018-02-21T08:34:26.488Z,2.4
2018-02-21T08:35:28.155Z,2.5
2018-02-21T08:36:29.828Z,3.2
2018-02-21T08:37:31.479Z,3.6
2018-02-21T08:38:33.135Z,3.5
2018-02-21T08:39:34.796Z,3.4
2018-02-21T08:40:36.474Z,3.8
2018-02-21T08:41:38.111Z,3.7
2018-02-21T08:42:39.783Z,3.6
2018-02-21T08:43:41.433Z,3.1
2018-02-21T08:44:43.130Z,3.4
2018-02-21T08:45:44.784Z,3.6
2018-02-21T08:46:46.443Z,3.5
2018-02-21T08:47:48.108Z,3.2
2018-02-21T08:48:49.772Z,2.8
2018-02-21T08:49:51.441Z,3.2
2018-02-21T08:50:53.097Z,2.5
2018-02-21T08:51:54.800Z,2.4
2018-02-21T08:52:56.424Z,2.7
2018-02-21T08:53:58.088Z,3.7
2018-02-21T08:54:59.755Z,3.9
2018-02-21T08:56:01.418Z,4.2
2018-02-21T08:57:03.089Z,4.8
2018-02-21T08:58:04.751Z,4.1
2018-02-21T08:59:06.420Z,4.3
2018-02-21T09:00:08.100Z,4.4
2018-02-21T09:01:09.785Z,4.2
2018-02-21T09:02:11.446Z,4.4
2018-02-21T09:03:13.122Z,4.6
2018-02-21T09:04:14.785Z,3.9
2018-02-21T09:05:16.445Z,4.6
2018-02-21T09:06:18.106Z,4.6
2018-02-21T09:07:19.775Z,5.4
2018-02-21T09:08:21.418Z,4.6
2018-02-21T09:09:23.080Z,4.7
2018-02-21T09:10:24.746Z,5.0
2018-02-21T09:11:26.423Z,3.3
2018-02-21T09:12:28.083Z,3.3
2018-02-21T09:13:29.741Z,4.2
2018-02-21T09:14:31.466Z,3.8
2018-02-21T09:15:33.132Z,3.3
2018-02-21T09:16:34.846Z,3.7
2018-02-21T09:17:36.460Z,3.3
2018-02-21T09:18:38.135Z,3.7
2018-02-21T09:19:39.787Z,3.4
2018-02-21T09:20:41.446Z,3.1
2018-02-21T09:21:43.106Z,3.5
2018-02-21T09:22:44.772Z,3.4
2018-02-21T09:23:46.428Z,3.2
2018-02-21T09:24:48.096Z,3.5
2018-02-21T09:25:49.761Z,4.2
2018-02-21T09:26:51.427Z,4.1
2018-02-21T09:27:53.139Z,4.2
2018-02-21T09:28:54.798Z,4.1
2018-02-21T09:29:56.466Z,4.7
2018-02-21T09:30:58.128Z,3.6
2018-02-21T09:31:59.791Z,4.2
2018-02-21T09:33:01.457Z,3.8
2018-02-21T09:34:03.126Z,4.4
2018-02-21T09:35:04.778Z,4.1
2018-02-21T09:36:06.439Z,4.0
2018-02-21T09:37:08.104Z,3.8
2018-02-21T09:38:09.768Z,3.6
2018-02-21T09:39:11.500Z,4.5
2018-02-21T09:40:13.177Z,4.6
2018-02-21T09:41:14.843Z,4.2
2018-02-21T09:42:16.509Z,3.7
2018-02-21T09:43:18.172Z,4.0
2018-02-21T09:44:19.853Z,3.6
2018-02-21T09:45:21.528Z,3.7
2018-02-21T09:46:23.195Z,3.4
2018-02-21T09:47:24.856Z,4.2
2018-02-21T09:48:26.515Z,4.2
2018-02-21T09:49:28.184Z,3.3
2018-02-21T09:50:29.847Z,3.2
2018-02-21T09:51:31.496Z,3.6
2018-02-21T09:52:33.161Z,3.4
2018-02-21T09:53:34.819Z,3.2
2018-02-21T09:54:36.484Z,2.9
2018-02-21T09:55:38.138Z,3.3
2018-02-21T09:56:39.812Z,3.5
2018-02-21T09:57:41.468Z,3.7
2018-02-21T09:58:43.128Z,3.6
2018-02-21T09:59:44.783Z,3.4
2018-02-21T10:00:46.448Z,4.2
2018-02-21T10:01:48.112Z,3.7
2018-02-21T10:02:49.768Z,4.2
2018-02-21T10:03:51.424Z,4.0
2018-02-21T10:04:53.090Z,4.4
2018-02-21T10:05:54.757Z,4.5
2018-02-21T10:06:56.428Z,4.8
2018-02-21T10:07:58.091Z,4.0
2018-02-21T10:08:59.748Z,4.1
2018-02-21T10:10:01.420Z,4.4
2018-02-21T10:11:03.087Z,4.3
2018-02-21T10:12:04.781Z,4.4
2018-02-21T10:13:06.496Z,4.6
2018-02-21T10:14:08.152Z,5.3
2018-02-21T10:15:09.838Z,4.4
2018-02-21T10:16:11.483Z,4.1
2018-02-21T10:17:13.169Z,4.2
2018-02-21T10:18:14.843Z,3.2
2018-02-21T10:19:16.518Z,3.4
2018-02-21T10:20:18.190Z,3.8
2018-02-21T10:21:19.857Z,4.3
2018-02-21T10:22:21.521Z,4.7
2018-02-21T10:23:23.203Z,4.2
2018-02-21T10:24:24.864Z,4.5
2018-02-21T10:25:26.636Z,3.8
2018-02-21T10:26:28.402Z,3.6
2018-02-21T10:27:30.077Z,3.8
2018-02-21T10:28:31.737Z,4.8
2018-02-21T10:29:33.396Z,4.0
2018-02-21T10:30:35.073Z,3.8
2018-02-21T10:31:36.824Z,3.9
2018-02-21T10:32:38.476Z,4.7
2018-02-21T10:33:40.138Z,4.9
2018-02-21T10:34:41.848Z,4.8
2018-02-21T10:35:43.513Z,5.6
2018-02-21T10:36:45.172Z,5.0
2018-02-21T10:37:46.838Z,4.7
2018-02-21T10:38:48.508Z,4.7
2018-02-21T10:39:50.158Z,4.7
2018-02-21T10:40:51.827Z,4.6
2018-02-21T10:41:53.480Z,4.3
2018-02-21T10:42:55.147Z,3.7
2018-02-21T10:43:56.813Z,4.1
2018-02-21T10:44:58.487Z,3.6
2018-02-21T10:46:00.173Z,3.5
2018-02-21T10:47:01.832Z,4.3
2018-02-21T10:48:03.532Z,4.2
2018-02-21T10:49:05.186Z,4.2
2018-02-21T10:50:06.846Z,4.0
2018-02-21T10:51:08.509Z,4.1
2018-02-21T10:52:10.187Z,4.5
2018-02-21T10:53:11.847Z,4.2
2018-02-21T10:54:13.513Z,4.2
2018-02-21T10:55:15.172Z,4.9
2018-02-21T11:01:34.279Z,4.9
2018-02-21T11:02:35.932Z,5.8
2018-02-21T11:03:37.594Z,4.8
2018-02-21T11:04:39.253Z,4.7
2018-02-21T11:05:40.924Z,5.3
2018-02-21T11:06:42.607Z,5.1
2018-02-21T11:07:44.269Z,4.5
2018-02-21T11:08:45.934Z,4.6
2018-02-21T11:09:47.593Z,4.2
2018-02-21T11:10:49.255Z,3.8
2018-02-21T11:11:50.917Z,3.6
2018-02-21T11:12:52.575Z,4.0
2018-02-21T11:13:54.236Z,4.5
2018-02-21T11:14:55.894Z,5.0
2018-02-21T11:15:57.564Z,5.1
2018-02-21T11:16:59.228Z,5.8
2018-02-21T11:18:00.903Z,5.0
2018-02-21T11:19:02.529Z,5.5
2018-02-21T11:20:04.190Z,5.4
2018-02-21T11:21:05.850Z,5.6
2018-02-21T11:22:07.513Z,5.0
2018-02-21T11:23:09.182Z,5.5
2018-02-21T11:24:10.840Z,5.2
2018-02-21T11:25:12.501Z,5.0
2018-02-21T11:26:14.168Z,4.5
2018-02-21T11:27:15.830Z,4.5
2018-02-21T11:28:17.495Z,5.2
2018-02-21T11:29:19.160Z,5.3
2018-02-21T11:30:20.826Z,5.4
2018-02-21T11:31:22.498Z,5.2
2018-02-21T11:32:24.164Z,5.6
2018-02-21T11:33:25.824Z,5.1
2018-02-21T11:34:27.493Z,4.4
2018-02-21T11:35:29.158Z,4.0
2018-02-21T11:36:30.824Z,4.7
2018-02-21T11:37:32.488Z,5.5
2018-02-21T11:38:34.150Z,5.2
2018-02-21T11:39:35.816Z,5.3
2018-02-21T11:40:37.472Z,6.3
2018-02-21T11:41:39.134Z,6.1
2018-02-21T11:42:40.804Z,6.2
2018-02-21T11:43:42.468Z,5.7
2018-02-21T11:44:44.161Z,5.9
2018-02-21T11:45:45.814Z,5.6
2018-02-21T11:46:47.475Z,5.7
2018-02-21T11:47:49.157Z,5.2
2018-02-21T11:48:50.812Z,5.3
2018-02-21T11:49:52.477Z,5.3
2018-02-21T11:50:54.152Z,5.3
2018-02-21T11:51:55.808Z,4.7
2018-02-21T11:52:57.469Z,5.5
2018-02-21T11:53:59.131Z,5.3
2018-02-21T11:55:00.789Z,6.0
2018-02-21T11:56:02.445Z,6.0
2018-02-21T11:57:04.114Z,6.2
2018-02-21T11:58:05.791Z,5.6
2018-02-21T11:59:07.443Z,5.9
2018-02-21T12:00:09.106Z,5.9
2018-02-21T12:01:10.775Z,5.7
2018-02-21T12:02:12.431Z,6.2
2018-02-21T12:03:14.109Z,6.0
2018-02-21T12:04:15.800Z,6.1
2018-02-21T12:05:17.470Z,6.2
2018-02-21T12:06:19.137Z,5.7
2018-02-21T12:07:20.805Z,5.6
2018-02-21T12:08:22.468Z,5.9
2018-02-21T12:09:24.135Z,6.0
2018-02-21T12:10:25.800Z,5.8
2018-02-21T12:11:27.492Z,5.9
2018-02-21T12:12:29.692Z,6.4
2018-02-21T12:13:31.720Z,5.9
2018-02-21T12:14:33.380Z,5.4
2018-02-21T12:15:35.039Z,5.6
2018-02-21T12:16:36.702Z,5.5
2018-02-21T12:17:38.383Z,5.9
2018-02-21T12:18:40.044Z,5.3
2018-02-21T12:19:41.723Z,5.5
2018-02-21T12:20:43.665Z,5.7
2018-02-21T12:21:45.305Z,5.3
2018-02-21T12:22:46.961Z,6.1
2018-02-21T12:23:48.629Z,6.5
2018-02-21T12:24:50.287Z,6.4
2018-02-21T12:25:51.961Z,6.0
2018-02-21T12:26:53.624Z,5.9
2018-02-21T12:27:55.293Z,5.8
2018-02-21T12:28:56.956Z,5.9
2018-02-21T12:29:58.618Z,6.1
2018-02-21T12:31:00.276Z,6.2
2018-02-21T12:32:01.943Z,6.4
2018-02-21T12:33:03.613Z,6.3
2018-02-21T12:34:05.281Z,6.8
2018-02-21T12:35:06.976Z,6.1
2018-02-21T12:36:08.635Z,5.8
2018-02-21T12:37:10.297Z,6.1
2018-02-21T12:38:11.958Z,6.3
2018-02-21T12:39:13.617Z,5.8
2018-02-21T12:40:15.285Z,5.3
2018-02-21T12:41:17.178Z,5.7
2018-02-21T12:42:18.838Z,5.8
2018-02-21T12:43:20.499Z,6.0
2018-02-21T12:44:22.159Z,5.5
2018-02-21T12:45:24.003Z,5.4
2018-02-21T12:46:26.310Z,5.7
2018-02-21T12:47:28.007Z,4.9
2018-02-21T12:48:29.691Z,5.1
2018-02-21T12:49:31.444Z,5.1
2018-02-21T12:50:33.200Z,4.9
2018-02-21T12:51:34.876Z,5.1
2018-02-21T12:52:36.542Z,5.0
2018-02-21T12:53:38.221Z,5.4
2018-02-21T12:54:39.893Z,5.9
2018-02-21T12:55:41.558Z,5.9
2018-02-21T12:56:43.217Z,5.6
2018-02-21T12:57:45.035Z,5.8
2018-02-21T12:58:46.698Z,6.0
2018-02-21T12:59:48.364Z,6.2
2018-02-21T13:00:50.037Z,6.0
2018-02-21T13:01:51.704Z,6.3
2018-02-21T13:02:53.379Z,6.1
2018-02-21T13:03:55.201Z,6.2
2018-02-21T13:04:56.859Z,6.3
2018-02-21T13:05:58.581Z,6.1
2018-02-21T13:07:00.234Z,6.1
2018-02-21T13:08:01.926Z,6.4
2018-02-21T13:09:03.568Z,6.4
2018-02-21T13:10:05.227Z,6.4
2018-02-21T13:11:06.892Z,6.3
2018-02-21T13:12:08.551Z,5.8
2018-02-21T13:13:10.216Z,6.0
2018-02-21T13:14:11.938Z,5.8
2018-02-21T13:15:13.602Z,5.8
2018-02-21T13:16:15.263Z,5.6
2018-02-21T13:17:16.945Z,6.0
2018-02-21T13:18:18.662Z,5.8
2018-02-21T13:19:20.281Z,5.5
2018-02-21T13:20:21.957Z,6.0
2018-02-21T13:21:23.615Z,5.9
2018-02-21T13:22:25.277Z,6.1
2018-02-21T13:23:27.007Z,6.1
2018-02-21T13:24:28.676Z,6.2
2018-02-21T13:25:30.344Z,6.2
2018-02-21T13:26:32.012Z,6.1
2018-02-21T13:27:33.677Z,6.0
2018-02-21T13:28:35.341Z,6.1
2018-02-21T13:29:37.009Z,6.0
2018-02-21T13:30:38.670Z,5.9
2018-02-21T13:31:40.368Z,5.7
2018-02-21T13:32:42.037Z,5.5
2018-02-21T13:33:43.690Z,5.5
2018-02-21T13:34:45.346Z,5.0
2018-02-21T13:35:47.015Z,5.3
2018-02-21T13:36:48.713Z,5.6
2018-02-21T13:37:50.381Z,5.5
2018-02-21T13:38:52.053Z,5.8
2018-02-21T13:39:53.716Z,5.7
2018-02-21T13:40:55.411Z,5.5
2018-02-21T13:41:57.064Z,5.4
2018-02-21T13:42:58.758Z,4.8
2018-02-21T13:44:00.637Z,4.8
2018-02-21T13:45:02.303Z,4.9
2018-02-21T13:46:03.971Z,5.1
2018-02-21T13:47:05.636Z,5.2
2018-02-21T13:48:07.298Z,5.3
2018-02-21T13:49:08.963Z,5.3
2018-02-21T13:50:10.630Z,5.2
2018-02-21T13:51:12.299Z,5.3
2018-02-21T13:52:13.967Z,5.1
2018-02-21T13:53:15.627Z,5.2
2018-02-21T13:54:17.297Z,5.1
2018-02-21T13:55:18.953Z,5.2
2018-02-21T13:56:20.611Z,5.0
2018-02-21T13:57:22.282Z,5.0
2018-02-21T13:58:23.967Z,4.6
2018-02-21T13:59:25.630Z,4.8
2018-02-21T14:00:27.294Z,4.9
2018-02-21T14:01:28.957Z,4.8
2018-02-21T14:02:30.622Z,4.9
2018-02-21T14:03:32.282Z,4.9
2018-02-21T14:04:33.946Z,5.0
2018-02-21T14:05:35.605Z,4.9
2018-02-21T14:06:37.264Z,5.0
2018-02-21T14:07:38.933Z,5.2
2018-02-21T14:08:40.598Z,5.1
2018-02-21T14:09:42.265Z,4.9
2018-02-21T14:10:43.934Z,5.2
2018-02-21T14:11:45.618Z,5.4
2018-02-21T14:12:47.287Z,5.1
2018-02-21T14:13:48.947Z,5.3
2018-02-21T14:14:50.618Z,5.2
2018-02-21T14:15:52.291Z,5.2
2018-02-21T14:16:53.950Z,5.2
2018-02-21T14:17:55.611Z,4.9
2018-02-21T14:18:57.270Z,4.8